sensor_id;sensor_type;location;lat;lon;timestamp;P1;durP1;ratioP1;P2;durP2;ratioP2
40459;SDS011;26164;51.138;16.952;2023-05-07T00:02:00;13.55;;;6.78;;
40459;SDS011;26164;51.138;16.952;2023-05-07T00:04:25;11.90;;;6.20;;
40459;SDS011;26164;51.138;16.952;2023-05-07T00:06:52;8.95;;;5.85;;
40459;SDS011;26164;51.138;16.952;2023-05-07T00:09:17;10.05;;;6.50;;
40459;SDS011;26164;51.138;16.952;2023-05-07T00:11:43;12.40;;;6.03;;
40459;SDS011;26164;51.138;16.952;2023-05-07T00:14:09;8.45;;;5.45;;
40459;SDS011;26164;51.138;16.952;2023-05-07T00:16:35;10.05;;;5.60;;
40459;SDS011;26164;51.138;16.952;2023-05-07T00:19:00;11.05;;;5.28;;
40459;SDS011;26164;51.138;16.952;2023-05-07T00:21:26;7.28;;;5.28;;
40459;SDS011;26164;51.138;16.952;2023-05-07T00:23:52;10.52;;;5.40;;
40459;SDS011;26164;51.138;16.952;2023-05-07T00:26:18;10.80;;;5.47;;
40459;SDS011;26164;51.138;16.952;2023-05-07T00:28:46;9.20;;;5.00;;
40459;SDS011;26164;51.138;16.952;2023-05-07T00:31:12;9.93;;;5.85;;
40459;SDS011;26164;51.138;16.952;2023-05-07T00:33:38;8.00;;;5.20;;
40459;SDS011;26164;51.138;16.952;2023-05-07T00:36:04;8.13;;;5.25;;
40459;SDS011;26164;51.138;16.952;2023-05-07T00:38:29;9.75;;;5.30;;
40459;SDS011;26164;51.138;16.952;2023-05-07T00:40:55;9.13;;;5.57;;
40459;SDS011;26164;51.138;16.952;2023-05-07T00:43:21;8.43;;;5.60;;
40459;SDS011;26164;51.138;16.952;2023-05-07T00:45:47;7.25;;;5.13;;
40459;SDS011;26164;51.138;16.952;2023-05-07T00:48:13;10.57;;;5.40;;
40459;SDS011;26164;51.138;16.952;2023-05-07T00:50:41;9.73;;;5.63;;
40459;SDS011;26164;51.138;16.952;2023-05-07T00:53:06;9.32;;;5.35;;
40459;SDS011;26164;51.138;16.952;2023-05-07T00:55:33;8.48;;;5.40;;
40459;SDS011;26164;51.138;16.952;2023-05-07T00:57:58;11.82;;;5.50;;
40459;SDS011;26164;51.138;16.952;2023-05-07T01:00:24;7.93;;;5.22;;
40459;SDS011;26164;51.138;16.952;2023-05-07T01:02:50;8.07;;;5.07;;
40459;SDS011;26164;51.138;16.952;2023-05-07T01:05:17;10.60;;;5.75;;
40459;SDS011;26164;51.138;16.952;2023-05-07T01:07:43;9.27;;;5.72;;
40459;SDS011;26164;51.138;16.952;2023-05-07T01:10:10;8.52;;;5.95;;
40459;SDS011;26164;51.138;16.952;2023-05-07T01:12:37;8.88;;;6.03;;
40459;SDS011;26164;51.138;16.952;2023-05-07T01:15:04;9.00;;;6.03;;
40459;SDS011;26164;51.138;16.952;2023-05-07T01:17:34;8.75;;;5.75;;
40459;SDS011;26164;51.138;16.952;2023-05-07T01:20:01;8.52;;;5.80;;
40459;SDS011;26164;51.138;16.952;2023-05-07T01:22:33;10.27;;;6.32;;
40459;SDS011;26164;51.138;16.952;2023-05-07T01:25:00;11.55;;;6.65;;
40459;SDS011;26164;51.138;16.952;2023-05-07T01:27:28;9.32;;;6.35;;
40459;SDS011;26164;51.138;16.952;2023-05-07T01:29:54;9.10;;;6.22;;
40459;SDS011;26164;51.138;16.952;2023-05-07T01:32:23;10.50;;;6.50;;
40459;SDS011;26164;51.138;16.952;2023-05-07T01:34:52;12.70;;;6.82;;
40459;SDS011;26164;51.138;16.952;2023-05-07T01:37:18;12.90;;;6.70;;
40459;SDS011;26164;51.138;16.952;2023-05-07T01:39:44;11.23;;;7.03;;
40459;SDS011;26164;51.138;16.952;2023-05-07T01:42:10;10.18;;;6.88;;
40459;SDS011;26164;51.138;16.952;2023-05-07T01:44:35;10.82;;;7.50;;
40459;SDS011;26164;51.138;16.952;2023-05-07T01:47:02;12.90;;;7.93;;
40459;SDS011;26164;51.138;16.952;2023-05-07T01:49:29;12.05;;;8.07;;
40459;SDS011;26164;51.138;16.952;2023-05-07T01:51:56;10.25;;;7.00;;
40459;SDS011;26164;51.138;16.952;2023-05-07T01:54:26;9.57;;;6.60;;
40459;SDS011;26164;51.138;16.952;2023-05-07T01:57:11;12.90;;;7.00;;
40459;SDS011;26164;51.138;16.952;2023-05-07T01:59:37;11.07;;;6.85;;
40459;SDS011;26164;51.138;16.952;2023-05-07T02:02:03;10.77;;;7.15;;
40459;SDS011;26164;51.138;16.952;2023-05-07T02:04:30;10.43;;;7.38;;
40459;SDS011;26164;51.138;16.952;2023-05-07T02:06:56;12.43;;;7.18;;
40459;SDS011;26164;51.138;16.952;2023-05-07T02:09:22;12.30;;;6.88;;
40459;SDS011;26164;51.138;16.952;2023-05-07T02:11:50;12.55;;;6.35;;
40459;SDS011;26164;51.138;16.952;2023-05-07T02:14:17;12.30;;;6.28;;
40459;SDS011;26164;51.138;16.952;2023-05-07T02:16:43;12.15;;;7.07;;
40459;SDS011;26164;51.138;16.952;2023-05-07T02:19:11;11.50;;;6.55;;
40459;SDS011;26164;51.138;16.952;2023-05-07T02:21:38;10.15;;;6.45;;
40459;SDS011;26164;51.138;16.952;2023-05-07T02:24:03;10.13;;;5.95;;
40459;SDS011;26164;51.138;16.952;2023-05-07T02:26:29;10.60;;;6.30;;
40459;SDS011;26164;51.138;16.952;2023-05-07T02:28:55;9.65;;;6.22;;
40459;SDS011;26164;51.138;16.952;2023-05-07T02:31:22;10.30;;;6.20;;
40459;SDS011;26164;51.138;16.952;2023-05-07T02:33:47;12.80;;;6.57;;
40459;SDS011;26164;51.138;16.952;2023-05-07T02:36:14;13.05;;;6.85;;
40459;SDS011;26164;51.138;16.952;2023-05-07T02:38:59;11.63;;;7.28;;
40459;SDS011;26164;51.138;16.952;2023-05-07T02:41:27;10.38;;;6.72;;
40459;SDS011;26164;51.138;16.952;2023-05-07T02:43:53;12.15;;;7.50;;
40459;SDS011;26164;51.138;16.952;2023-05-07T02:46:19;15.43;;;8.05;;
40459;SDS011;26164;51.138;16.952;2023-05-07T02:48:50;16.88;;;7.63;;
40459;SDS011;26164;51.138;16.952;2023-05-07T02:51:19;17.77;;;8.02;;
40459;SDS011;26164;51.138;16.952;2023-05-07T02:53:45;13.45;;;7.95;;
40459;SDS011;26164;51.138;16.952;2023-05-07T02:56:11;11.38;;;7.75;;
40459;SDS011;26164;51.138;16.952;2023-05-07T02:58:37;12.73;;;7.57;;
40459;SDS011;26164;51.138;16.952;2023-05-07T03:01:05;13.18;;;8.35;;
40459;SDS011;26164;51.138;16.952;2023-05-07T03:03:36;14.20;;;8.40;;
40459;SDS011;26164;51.138;16.952;2023-05-07T03:06:02;13.32;;;6.93;;
40459;SDS011;26164;51.138;16.952;2023-05-07T03:08:28;11.45;;;7.15;;
40459;SDS011;26164;51.138;16.952;2023-05-07T03:10:54;12.00;;;6.82;;
40459;SDS011;26164;51.138;16.952;2023-05-07T03:13:20;11.60;;;6.55;;
40459;SDS011;26164;51.138;16.952;2023-05-07T03:15:46;10.45;;;7.00;;
40459;SDS011;26164;51.138;16.952;2023-05-07T03:18:12;11.80;;;6.35;;
40459;SDS011;26164;51.138;16.952;2023-05-07T03:20:38;11.43;;;6.63;;
40459;SDS011;26164;51.138;16.952;2023-05-07T03:23:03;13.00;;;6.68;;
40459;SDS011;26164;51.138;16.952;2023-05-07T03:25:31;11.35;;;6.72;;
40459;SDS011;26164;51.138;16.952;2023-05-07T03:27:57;10.95;;;6.55;;
40459;SDS011;26164;51.138;16.952;2023-05-07T03:30:26;12.63;;;6.97;;
40459;SDS011;26164;51.138;16.952;2023-05-07T03:32:52;12.38;;;6.75;;
40459;SDS011;26164;51.138;16.952;2023-05-07T03:35:18;12.07;;;6.60;;
40459;SDS011;26164;51.138;16.952;2023-05-07T03:37:44;13.82;;;7.65;;
40459;SDS011;26164;51.138;16.952;2023-05-07T03:40:12;12.40;;;6.55;;
40459;SDS011;26164;51.138;16.952;2023-05-07T03:42:44;12.05;;;6.63;;
40459;SDS011;26164;51.138;16.952;2023-05-07T03:45:12;12.27;;;6.50;;
40459;SDS011;26164;51.138;16.952;2023-05-07T03:47:41;9.70;;;6.57;;
40459;SDS011;26164;51.138;16.952;2023-05-07T03:50:09;13.77;;;7.18;;
40459;SDS011;26164;51.138;16.952;2023-05-07T03:52:36;11.82;;;6.93;;
40459;SDS011;26164;51.138;16.952;2023-05-07T03:55:03;10.05;;;7.07;;
40459;SDS011;26164;51.138;16.952;2023-05-07T03:57:31;10.48;;;7.60;;
40459;SDS011;26164;51.138;16.952;2023-05-07T03:59:58;13.27;;;6.85;;
40459;SDS011;26164;51.138;16.952;2023-05-07T04:02:24;11.98;;;6.40;;
40459;SDS011;26164;51.138;16.952;2023-05-07T04:04:54;10.07;;;5.00;;
40459;SDS011;26164;51.138;16.952;2023-05-07T04:07:20;10.32;;;5.80;;
40459;SDS011;26164;51.138;16.952;2023-05-07T04:09:49;9.13;;;5.88;;
40459;SDS011;26164;51.138;16.952;2023-05-07T04:12:15;10.95;;;7.80;;
40459;SDS011;26164;51.138;16.952;2023-05-07T04:14:43;11.23;;;7.60;;
40459;SDS011;26164;51.138;16.952;2023-05-07T04:17:08;14.30;;;10.15;;
40459;SDS011;26164;51.138;16.952;2023-05-07T04:19:37;16.08;;;9.68;;
40459;SDS011;26164;51.138;16.952;2023-05-07T04:22:04;13.55;;;10.10;;
40459;SDS011;26164;51.138;16.952;2023-05-07T04:24:33;14.93;;;10.60;;
40459;SDS011;26164;51.138;16.952;2023-05-07T04:27:00;19.80;;;11.32;;
40459;SDS011;26164;51.138;16.952;2023-05-07T04:29:27;15.93;;;10.57;;
40459;SDS011;26164;51.138;16.952;2023-05-07T04:31:54;13.65;;;10.00;;
40459;SDS011;26164;51.138;16.952;2023-05-07T04:34:22;13.27;;;9.80;;
40459;SDS011;26164;51.138;16.952;2023-05-07T04:36:48;15.20;;;10.63;;
40459;SDS011;26164;51.138;16.952;2023-05-07T04:39:14;14.18;;;10.15;;
40459;SDS011;26164;51.138;16.952;2023-05-07T04:41:43;14.15;;;9.95;;
40459;SDS011;26164;51.138;16.952;2023-05-07T04:44:09;14.20;;;9.38;;
40459;SDS011;26164;51.138;16.952;2023-05-07T04:46:36;12.70;;;8.48;;
40459;SDS011;26164;51.138;16.952;2023-05-07T04:49:02;12.98;;;8.10;;
40459;SDS011;26164;51.138;16.952;2023-05-07T04:51:28;11.85;;;8.20;;
40459;SDS011;26164;51.138;16.952;2023-05-07T04:53:54;12.52;;;7.50;;
40459;SDS011;26164;51.138;16.952;2023-05-07T04:56:20;10.82;;;6.80;;
40459;SDS011;26164;51.138;16.952;2023-05-07T04:58:47;13.20;;;6.35;;
40459;SDS011;26164;51.138;16.952;2023-05-07T05:01:19;9.15;;;6.78;;
40459;SDS011;26164;51.138;16.952;2023-05-07T05:03:45;8.40;;;5.55;;
40459;SDS011;26164;51.138;16.952;2023-05-07T05:06:11;8.88;;;5.70;;
40459;SDS011;26164;51.138;16.952;2023-05-07T05:08:40;7.70;;;4.88;;
40459;SDS011;26164;51.138;16.952;2023-05-07T05:11:06;7.75;;;4.28;;
40459;SDS011;26164;51.138;16.952;2023-05-07T05:13:34;5.80;;;4.07;;
40459;SDS011;26164;51.138;16.952;2023-05-07T05:16:05;6.15;;;3.70;;
40459;SDS011;26164;51.138;16.952;2023-05-07T05:18:32;7.72;;;4.13;;
40459;SDS011;26164;51.138;16.952;2023-05-07T05:20:58;6.45;;;3.90;;
40459;SDS011;26164;51.138;16.952;2023-05-07T05:23:23;7.60;;;4.40;;
40459;SDS011;26164;51.138;16.952;2023-05-07T05:25:49;8.73;;;4.60;;
40459;SDS011;26164;51.138;16.952;2023-05-07T05:28:15;7.70;;;5.15;;
40459;SDS011;26164;51.138;16.952;2023-05-07T05:30:41;8.95;;;4.65;;
40459;SDS011;26164;51.138;16.952;2023-05-07T05:33:08;8.02;;;5.18;;
40459;SDS011;26164;51.138;16.952;2023-05-07T05:35:34;9.98;;;5.10;;
40459;SDS011;26164;51.138;16.952;2023-05-07T05:38:03;7.00;;;5.00;;
40459;SDS011;26164;51.138;16.952;2023-05-07T05:40:29;8.02;;;5.65;;
40459;SDS011;26164;51.138;16.952;2023-05-07T05:42:57;7.93;;;4.78;;
40459;SDS011;26164;51.138;16.952;2023-05-07T05:45:23;7.93;;;5.00;;
40459;SDS011;26164;51.138;16.952;2023-05-07T05:47:50;7.82;;;5.43;;
40459;SDS011;26164;51.138;16.952;2023-05-07T05:50:16;8.55;;;5.57;;
40459;SDS011;26164;51.138;16.952;2023-05-07T05:52:46;7.60;;;4.80;;
40459;SDS011;26164;51.138;16.952;2023-05-07T05:55:13;6.63;;;4.75;;
40459;SDS011;26164;51.138;16.952;2023-05-07T05:57:40;8.75;;;5.10;;
40459;SDS011;26164;51.138;16.952;2023-05-07T06:00:06;5.65;;;4.65;;
40459;SDS011;26164;51.138;16.952;2023-05-07T06:02:44;8.95;;;4.30;;
40459;SDS011;26164;51.138;16.952;2023-05-07T06:05:12;6.90;;;4.53;;
40459;SDS011;26164;51.138;16.952;2023-05-07T06:07:39;7.88;;;4.82;;
40459;SDS011;26164;51.138;16.952;2023-05-07T06:10:05;8.50;;;4.30;;
40459;SDS011;26164;51.138;16.952;2023-05-07T06:12:33;7.55;;;4.93;;
40459;SDS011;26164;51.138;16.952;2023-05-07T06:14:59;9.43;;;4.05;;
40459;SDS011;26164;51.138;16.952;2023-05-07T06:17:27;8.57;;;4.20;;
40459;SDS011;26164;51.138;16.952;2023-05-07T06:19:52;7.05;;;5.05;;
40459;SDS011;26164;51.138;16.952;2023-05-07T06:22:19;8.40;;;4.70;;
40459;SDS011;26164;51.138;16.952;2023-05-07T06:24:45;6.38;;;4.65;;
40459;SDS011;26164;51.138;16.952;2023-05-07T06:27:12;8.10;;;4.40;;
40459;SDS011;26164;51.138;16.952;2023-05-07T06:29:39;7.13;;;4.10;;
40459;SDS011;26164;51.138;16.952;2023-05-07T06:32:12;5.45;;;3.65;;
40459;SDS011;26164;51.138;16.952;2023-05-07T06:34:39;7.25;;;3.58;;
40459;SDS011;26164;51.138;16.952;2023-05-07T06:37:06;5.55;;;3.90;;
40459;SDS011;26164;51.138;16.952;2023-05-07T06:39:52;8.35;;;4.20;;
40459;SDS011;26164;51.138;16.952;2023-05-07T06:42:18;6.63;;;4.32;;
40459;SDS011;26164;51.138;16.952;2023-05-07T06:44:46;6.22;;;3.75;;
40459;SDS011;26164;51.138;16.952;2023-05-07T06:47:15;8.65;;;3.92;;
40459;SDS011;26164;51.138;16.952;2023-05-07T06:49:41;6.68;;;4.72;;
40459;SDS011;26164;51.138;16.952;2023-05-07T06:52:07;7.75;;;4.45;;
40459;SDS011;26164;51.138;16.952;2023-05-07T06:54:34;9.68;;;5.13;;
40459;SDS011;26164;51.138;16.952;2023-05-07T06:57:01;6.90;;;4.35;;
40459;SDS011;26164;51.138;16.952;2023-05-07T06:59:27;6.32;;;4.20;;
40459;SDS011;26164;51.138;16.952;2023-05-07T07:01:57;5.65;;;4.10;;
40459;SDS011;26164;51.138;16.952;2023-05-07T07:04:23;4.63;;;2.78;;
40459;SDS011;26164;51.138;16.952;2023-05-07T07:07:02;4.25;;;2.45;;
40459;SDS011;26164;51.138;16.952;2023-05-07T07:09:28;6.13;;;2.97;;
40459;SDS011;26164;51.138;16.952;2023-05-07T07:11:54;5.38;;;3.17;;
40459;SDS011;26164;51.138;16.952;2023-05-07T07:14:20;3.67;;;2.72;;
40459;SDS011;26164;51.138;16.952;2023-05-07T07:16:50;4.13;;;2.70;;
40459;SDS011;26164;51.138;16.952;2023-05-07T07:19:18;4.30;;;2.70;;
40459;SDS011;26164;51.138;16.952;2023-05-07T07:21:47;3.83;;;2.47;;
40459;SDS011;26164;51.138;16.952;2023-05-07T07:24:14;3.38;;;2.35;;
40459;SDS011;26164;51.138;16.952;2023-05-07T07:26:47;3.75;;;2.30;;
40459;SDS011;26164;51.138;16.952;2023-05-07T07:29:17;5.43;;;2.60;;
40459;SDS011;26164;51.138;16.952;2023-05-07T07:31:45;4.03;;;2.38;;
40459;SDS011;26164;51.138;16.952;2023-05-07T07:34:11;3.28;;;2.22;;
40459;SDS011;26164;51.138;16.952;2023-05-07T07:36:38;3.85;;;2.63;;
40459;SDS011;26164;51.138;16.952;2023-05-07T07:39:03;4.70;;;2.00;;
40459;SDS011;26164;51.138;16.952;2023-05-07T07:41:30;3.38;;;2.20;;
40459;SDS011;26164;51.138;16.952;2023-05-07T07:43:55;4.63;;;2.47;;
40459;SDS011;26164;51.138;16.952;2023-05-07T07:46:21;3.50;;;2.30;;
40459;SDS011;26164;51.138;16.952;2023-05-07T07:48:48;3.58;;;2.53;;
40459;SDS011;26164;51.138;16.952;2023-05-07T07:51:14;4.75;;;2.90;;
40459;SDS011;26164;51.138;16.952;2023-05-07T07:53:40;5.90;;;3.00;;
40459;SDS011;26164;51.138;16.952;2023-05-07T07:56:07;5.70;;;3.25;;
40459;SDS011;26164;51.138;16.952;2023-05-07T07:58:33;5.40;;;3.45;;
40459;SDS011;26164;51.138;16.952;2023-05-07T08:01:01;7.25;;;3.47;;
40459;SDS011;26164;51.138;16.952;2023-05-07T08:03:28;4.97;;;3.28;;
40459;SDS011;26164;51.138;16.952;2023-05-07T08:06:02;6.13;;;3.83;;
40459;SDS011;26164;51.138;16.952;2023-05-07T08:08:28;6.53;;;3.78;;
40459;SDS011;26164;51.138;16.952;2023-05-07T08:10:54;7.22;;;4.03;;
40459;SDS011;26164;51.138;16.952;2023-05-07T08:13:30;6.55;;;4.13;;
40459;SDS011;26164;51.138;16.952;2023-05-07T08:15:57;8.68;;;4.60;;
40459;SDS011;26164;51.138;16.952;2023-05-07T08:18:23;7.47;;;4.47;;
40459;SDS011;26164;51.138;16.952;2023-05-07T08:20:52;6.53;;;4.03;;
40459;SDS011;26164;51.138;16.952;2023-05-07T08:23:22;7.90;;;4.28;;
40459;SDS011;26164;51.138;16.952;2023-05-07T08:25:51;5.78;;;4.28;;
40459;SDS011;26164;51.138;16.952;2023-05-07T08:28:18;7.00;;;4.45;;
40459;SDS011;26164;51.138;16.952;2023-05-07T08:30:46;5.85;;;3.78;;
40459;SDS011;26164;51.138;16.952;2023-05-07T08:33:13;6.65;;;4.70;;
40459;SDS011;26164;51.138;16.952;2023-05-07T08:35:41;8.88;;;4.82;;
40459;SDS011;26164;51.138;16.952;2023-05-07T08:38:08;6.15;;;4.22;;
40459;SDS011;26164;51.138;16.952;2023-05-07T08:40:37;8.73;;;5.13;;
40459;SDS011;26164;51.138;16.952;2023-05-07T08:43:08;7.10;;;4.70;;
40459;SDS011;26164;51.138;16.952;2023-05-07T08:45:36;7.07;;;5.05;;
40459;SDS011;26164;51.138;16.952;2023-05-07T08:48:05;6.93;;;5.10;;
40459;SDS011;26164;51.138;16.952;2023-05-07T08:56:51;9.60;;;5.68;;
40459;SDS011;26164;51.138;16.952;2023-05-07T08:59:19;8.73;;;5.53;;
40459;SDS011;26164;51.138;16.952;2023-05-07T09:01:45;8.52;;;5.38;;
40459;SDS011;26164;51.138;16.952;2023-05-07T09:04:11;7.13;;;5.18;;
40459;SDS011;26164;51.138;16.952;2023-05-07T09:06:41;9.07;;;6.25;;
40459;SDS011;26164;51.138;16.952;2023-05-07T09:09:15;11.50;;;6.72;;
40459;SDS011;26164;51.138;16.952;2023-05-07T09:11:44;9.80;;;6.70;;
40459;SDS011;26164;51.138;16.952;2023-05-07T09:14:16;8.23;;;5.90;;
40459;SDS011;26164;51.138;16.952;2023-05-07T09:16:44;10.80;;;6.28;;
40459;SDS011;26164;51.138;16.952;2023-05-07T09:19:12;8.38;;;5.32;;
40459;SDS011;26164;51.138;16.952;2023-05-07T09:21:43;10.57;;;5.90;;
40459;SDS011;26164;51.138;16.952;2023-05-07T09:24:11;10.50;;;6.28;;
40459;SDS011;26164;51.138;16.952;2023-05-07T09:26:45;10.63;;;5.57;;
40459;SDS011;26164;51.138;16.952;2023-05-07T09:29:21;6.10;;;4.38;;
40459;SDS011;26164;51.138;16.952;2023-05-07T09:31:50;8.43;;;4.93;;
40459;SDS011;26164;51.138;16.952;2023-05-07T09:34:25;6.45;;;4.35;;
40459;SDS011;26164;51.138;16.952;2023-05-07T09:37:01;9.00;;;4.88;;
40459;SDS011;26164;51.138;16.952;2023-05-07T09:39:38;7.43;;;4.82;;
40459;SDS011;26164;51.138;16.952;2023-05-07T09:42:04;7.40;;;4.82;;
40459;SDS011;26164;51.138;16.952;2023-05-07T09:44:39;5.60;;;3.88;;
40459;SDS011;26164;51.138;16.952;2023-05-07T09:47:40;6.53;;;4.45;;
40459;SDS011;26164;51.138;16.952;2023-05-07T09:50:08;6.43;;;4.32;;
40459;SDS011;26164;51.138;16.952;2023-05-07T09:52:39;9.93;;;5.57;;
40459;SDS011;26164;51.138;16.952;2023-05-07T09:55:08;7.82;;;5.00;;
40459;SDS011;26164;51.138;16.952;2023-05-07T09:57:40;9.30;;;4.97;;
40459;SDS011;26164;51.138;16.952;2023-05-07T10:00:52;7.63;;;4.85;;
40459;SDS011;26164;51.138;16.952;2023-05-07T10:03:21;8.80;;;4.40;;
40459;SDS011;26164;51.138;16.952;2023-05-07T10:06:03;7.15;;;4.72;;
40459;SDS011;26164;51.138;16.952;2023-05-07T10:08:37;8.75;;;5.22;;
40459;SDS011;26164;51.138;16.952;2023-05-07T10:11:06;7.25;;;5.15;;
40459;SDS011;26164;51.138;16.952;2023-05-07T10:13:43;5.50;;;4.30;;
40459;SDS011;26164;51.138;16.952;2023-05-07T10:16:11;8.60;;;4.53;;
40459;SDS011;26164;51.138;16.952;2023-05-07T10:18:50;5.93;;;4.05;;
40459;SDS011;26164;51.138;16.952;2023-05-07T10:21:22;7.13;;;4.57;;
40459;SDS011;26164;51.138;16.952;2023-05-07T10:24:03;7.78;;;4.57;;
40459;SDS011;26164;51.138;16.952;2023-05-07T10:26:44;5.18;;;3.47;;
40459;SDS011;26164;51.138;16.952;2023-05-07T10:29:28;5.50;;;3.60;;
40459;SDS011;26164;51.138;16.952;2023-05-07T10:35:02;5.28;;;3.45;;
40459;SDS011;26164;51.138;16.952;2023-05-07T10:37:31;6.30;;;3.90;;
40459;SDS011;26164;51.138;16.952;2023-05-07T10:40:16;6.35;;;3.35;;
40459;SDS011;26164;51.138;16.952;2023-05-07T10:43:23;5.05;;;3.47;;
40459;SDS011;26164;51.138;16.952;2023-05-07T10:51:26;8.15;;;3.10;;
40459;SDS011;26164;51.138;16.952;2023-05-07T10:56:46;4.80;;;3.25;;
40459;SDS011;26164;51.138;16.952;2023-05-07T11:02:02;6.88;;;3.40;;
40459;SDS011;26164;51.138;16.952;2023-05-07T11:04:44;5.10;;;2.92;;
40459;SDS011;26164;51.138;16.952;2023-05-07T11:07:32;4.88;;;2.85;;
40459;SDS011;26164;51.138;16.952;2023-05-07T11:10:13;5.95;;;3.20;;
40459;SDS011;26164;51.138;16.952;2023-05-07T11:12:53;5.43;;;2.78;;
40459;SDS011;26164;51.138;16.952;2023-05-07T11:15:37;4.80;;;3.13;;
40459;SDS011;26164;51.138;16.952;2023-05-07T11:18:21;5.25;;;3.25;;
40459;SDS011;26164;51.138;16.952;2023-05-07T11:20:56;7.78;;;3.47;;
40459;SDS011;26164;51.138;16.952;2023-05-07T11:26:30;6.07;;;3.33;;
40459;SDS011;26164;51.138;16.952;2023-05-07T11:29:16;3.83;;;2.80;;
40459;SDS011;26164;51.138;16.952;2023-05-07T11:31:44;4.93;;;3.28;;
40459;SDS011;26164;51.138;16.952;2023-05-07T11:34:20;5.57;;;2.90;;
40459;SDS011;26164;51.138;16.952;2023-05-07T11:36:47;4.78;;;2.75;;
40459;SDS011;26164;51.138;16.952;2023-05-07T11:39:24;4.20;;;2.63;;
40459;SDS011;26164;51.138;16.952;2023-05-07T11:41:57;7.15;;;3.00;;
40459;SDS011;26164;51.138;16.952;2023-05-07T11:44:45;4.03;;;2.90;;
40459;SDS011;26164;51.138;16.952;2023-05-07T11:47:20;4.65;;;3.13;;
40459;SDS011;26164;51.138;16.952;2023-05-07T11:49:50;4.65;;;3.00;;
40459;SDS011;26164;51.138;16.952;2023-05-07T11:52:19;5.40;;;3.35;;
40459;SDS011;26164;51.138;16.952;2023-05-07T11:54:49;4.45;;;2.80;;
40459;SDS011;26164;51.138;16.952;2023-05-07T11:57:17;4.90;;;2.78;;
40459;SDS011;26164;51.138;16.952;2023-05-07T11:59:42;4.88;;;2.92;;
40459;SDS011;26164;51.138;16.952;2023-05-07T12:02:14;4.82;;;2.50;;
40459;SDS011;26164;51.138;16.952;2023-05-07T12:04:40;4.45;;;2.88;;
40459;SDS011;26164;51.138;16.952;2023-05-07T12:07:28;4.90;;;2.80;;
40459;SDS011;26164;51.138;16.952;2023-05-07T12:10:22;4.45;;;2.55;;
40459;SDS011;26164;51.138;16.952;2023-05-07T12:12:50;4.18;;;2.70;;
40459;SDS011;26164;51.138;16.952;2023-05-07T12:15:24;3.78;;;2.83;;
40459;SDS011;26164;51.138;16.952;2023-05-07T12:17:54;4.65;;;2.20;;
40459;SDS011;26164;51.138;16.952;2023-05-07T12:20:21;3.25;;;2.42;;
40459;SDS011;26164;51.138;16.952;2023-05-07T12:22:48;4.88;;;2.72;;
40459;SDS011;26164;51.138;16.952;2023-05-07T12:25:19;8.38;;;2.88;;
40459;SDS011;26164;51.138;16.952;2023-05-07T12:27:52;5.05;;;2.97;;
40459;SDS011;26164;51.138;16.952;2023-05-07T12:30:42;5.38;;;2.72;;
40459;SDS011;26164;51.138;16.952;2023-05-07T12:33:08;5.05;;;3.30;;
40459;SDS011;26164;51.138;16.952;2023-05-07T12:35:39;4.65;;;3.20;;
40459;SDS011;26164;51.138;16.952;2023-05-07T12:41:16;4.95;;;2.92;;
40459;SDS011;26164;51.138;16.952;2023-05-07T12:43:47;4.32;;;3.03;;
40459;SDS011;26164;51.138;16.952;2023-05-07T12:46:14;5.32;;;2.88;;
40459;SDS011;26164;51.138;16.952;2023-05-07T12:48:48;4.53;;;3.10;;
40459;SDS011;26164;51.138;16.952;2023-05-07T12:51:14;9.60;;;3.42;;
40459;SDS011;26164;51.138;16.952;2023-05-07T12:53:46;4.78;;;3.40;;
40459;SDS011;26164;51.138;16.952;2023-05-07T12:56:16;6.82;;;3.40;;
40459;SDS011;26164;51.138;16.952;2023-05-07T12:58:57;8.25;;;3.22;;
40459;SDS011;26164;51.138;16.952;2023-05-07T13:01:28;5.55;;;3.42;;
40459;SDS011;26164;51.138;16.952;2023-05-07T13:04:00;4.53;;;3.30;;
40459;SDS011;26164;51.138;16.952;2023-05-07T13:06:29;4.22;;;2.97;;
40459;SDS011;26164;51.138;16.952;2023-05-07T13:08:55;5.85;;;3.00;;
40459;SDS011;26164;51.138;16.952;2023-05-07T13:11:30;4.40;;;3.35;;
40459;SDS011;26164;51.138;16.952;2023-05-07T13:14:33;5.20;;;3.28;;
40459;SDS011;26164;51.138;16.952;2023-05-07T13:17:16;5.10;;;3.13;;
40459;SDS011;26164;51.138;16.952;2023-05-07T13:19:45;4.50;;;3.30;;
40459;SDS011;26164;51.138;16.952;2023-05-07T13:22:17;5.78;;;4.00;;
40459;SDS011;26164;51.138;16.952;2023-05-07T13:24:58;5.07;;;3.60;;
40459;SDS011;26164;51.138;16.952;2023-05-07T13:27:26;5.47;;;3.70;;
40459;SDS011;26164;51.138;16.952;2023-05-07T13:29:52;6.85;;;3.30;;
40459;SDS011;26164;51.138;16.952;2023-05-07T13:32:22;5.22;;;3.30;;
40459;SDS011;26164;51.138;16.952;2023-05-07T13:34:48;6.93;;;3.70;;
40459;SDS011;26164;51.138;16.952;2023-05-07T13:43:05;7.68;;;4.47;;
40459;SDS011;26164;51.138;16.952;2023-05-07T13:45:32;5.13;;;3.38;;
40459;SDS011;26164;51.138;16.952;2023-05-07T13:47:57;6.43;;;3.80;;
40459;SDS011;26164;51.138;16.952;2023-05-07T13:50:24;4.38;;;2.97;;
40459;SDS011;26164;51.138;16.952;2023-05-07T13:52:55;4.75;;;3.10;;
40459;SDS011;26164;51.138;16.952;2023-05-07T13:55:28;5.60;;;3.40;;
40459;SDS011;26164;51.138;16.952;2023-05-07T13:58:01;6.45;;;3.70;;
40459;SDS011;26164;51.138;16.952;2023-05-07T14:00:31;5.88;;;3.33;;
40459;SDS011;26164;51.138;16.952;2023-05-07T14:02:57;5.63;;;3.70;;
40459;SDS011;26164;51.138;16.952;2023-05-07T14:05:25;4.90;;;3.33;;
40459;SDS011;26164;51.138;16.952;2023-05-07T14:07:56;6.72;;;3.10;;
40459;SDS011;26164;51.138;16.952;2023-05-07T14:10:23;7.70;;;3.03;;
40459;SDS011;26164;51.138;16.952;2023-05-07T14:12:50;5.38;;;3.22;;
40459;SDS011;26164;51.138;16.952;2023-05-07T14:15:17;6.63;;;3.20;;
40459;SDS011;26164;51.138;16.952;2023-05-07T14:17:43;5.72;;;3.30;;
40459;SDS011;26164;51.138;16.952;2023-05-07T14:20:10;8.30;;;3.20;;
40459;SDS011;26164;51.138;16.952;2023-05-07T14:22:36;3.63;;;2.60;;
40459;SDS011;26164;51.138;16.952;2023-05-07T14:25:04;4.50;;;2.80;;
40459;SDS011;26164;51.138;16.952;2023-05-07T14:27:30;5.03;;;3.38;;
40459;SDS011;26164;51.138;16.952;2023-05-07T14:29:56;7.20;;;2.92;;
40459;SDS011;26164;51.138;16.952;2023-05-07T14:32:23;5.20;;;3.05;;
40459;SDS011;26164;51.138;16.952;2023-05-07T14:34:55;5.15;;;3.00;;
40459;SDS011;26164;51.138;16.952;2023-05-07T14:37:20;4.55;;;3.03;;
40459;SDS011;26164;51.138;16.952;2023-05-07T14:39:47;7.40;;;2.88;;
40459;SDS011;26164;51.138;16.952;2023-05-07T14:42:18;4.57;;;3.08;;
40459;SDS011;26164;51.138;16.952;2023-05-07T14:44:51;4.72;;;2.92;;
40459;SDS011;26164;51.138;16.952;2023-05-07T14:47:18;4.22;;;2.95;;
40459;SDS011;26164;51.138;16.952;2023-05-07T14:49:44;6.03;;;3.45;;
40459;SDS011;26164;51.138;16.952;2023-05-07T14:52:12;5.18;;;3.20;;
40459;SDS011;26164;51.138;16.952;2023-05-07T14:54:38;6.95;;;3.35;;
40459;SDS011;26164;51.138;16.952;2023-05-07T14:57:04;6.30;;;3.25;;
40459;SDS011;26164;51.138;16.952;2023-05-07T14:59:32;9.27;;;2.90;;
40459;SDS011;26164;51.138;16.952;2023-05-07T15:01:59;4.40;;;2.95;;
40459;SDS011;26164;51.138;16.952;2023-05-07T15:04:26;5.18;;;3.25;;
40459;SDS011;26164;51.138;16.952;2023-05-07T15:06:54;5.38;;;3.30;;
40459;SDS011;26164;51.138;16.952;2023-05-07T15:09:22;7.43;;;3.50;;
40459;SDS011;26164;51.138;16.952;2023-05-07T15:11:47;4.95;;;3.05;;
40459;SDS011;26164;51.138;16.952;2023-05-07T15:14:13;5.50;;;3.40;;
40459;SDS011;26164;51.138;16.952;2023-05-07T15:16:44;6.40;;;3.20;;